sensor_id;sensor_type;location;lat;lon;timestamp;P1;durP1;ratioP1;P2;durP2;ratioP2
42964;SDS011;28604;51.204;22.552;2024-01-30T00:01:22;14.93;;;8.93;;
42964;SDS011;28604;51.204;22.552;2024-01-30T00:03:48;21.25;;;9.90;;
42964;SDS011;28604;51.204;22.552;2024-01-30T00:06:18;20.15;;;9.90;;
42964;SDS011;28604;51.204;22.552;2024-01-30T00:08:44;20.45;;;9.70;;
42964;SDS011;28604;51.204;22.552;2024-01-30T00:11:14;21.27;;;10.60;;
42964;SDS011;28604;51.204;22.552;2024-01-30T00:13:40;19.42;;;10.10;;
42964;SDS011;28604;51.204;22.552;2024-01-30T00:16:07;20.63;;;10.68;;
42964;SDS011;28604;51.204;22.552;2024-01-30T00:18:35;23.05;;;10.63;;
42964;SDS011;28604;51.204;22.552;2024-01-30T00:21:01;19.67;;;10.13;;
42964;SDS011;28604;51.204;22.552;2024-01-30T00:23:28;14.50;;;8.70;;
42964;SDS011;28604;51.204;22.552;2024-01-30T00:25:54;17.55;;;9.50;;
42964;SDS011;28604;51.204;22.552;2024-01-30T00:28:21;22.35;;;9.73;;
42964;SDS011;28604;51.204;22.552;2024-01-30T00:30:47;18.17;;;9.85;;
42964;SDS011;28604;51.204;22.552;2024-01-30T00:33:13;18.88;;;9.20;;
42964;SDS011;28604;51.204;22.552;2024-01-30T00:35:38;23.33;;;10.75;;
42964;SDS011;28604;51.204;22.552;2024-01-30T00:38:04;21.05;;;10.73;;
42964;SDS011;28604;51.204;22.552;2024-01-30T00:40:32;20.90;;;11.02;;
42964;SDS011;28604;51.204;22.552;2024-01-30T00:42:58;24.33;;;10.27;;
42964;SDS011;28604;51.204;22.552;2024-01-30T00:45:24;19.50;;;9.27;;
42964;SDS011;28604;51.204;22.552;2024-01-30T00:47:50;19.98;;;10.52;;
42964;SDS011;28604;51.204;22.552;2024-01-30T00:50:16;20.02;;;10.98;;
42964;SDS011;28604;51.204;22.552;2024-01-30T00:52:42;19.10;;;10.50;;
42964;SDS011;28604;51.204;22.552;2024-01-30T00:55:10;17.77;;;10.18;;
42964;SDS011;28604;51.204;22.552;2024-01-30T00:57:36;20.38;;;10.18;;
42964;SDS011;28604;51.204;22.552;2024-01-30T01:00:02;19.13;;;9.90;;
42964;SDS011;28604;51.204;22.552;2024-01-30T01:02:31;18.88;;;10.07;;
42964;SDS011;28604;51.204;22.552;2024-01-30T01:04:56;17.95;;;9.77;;
42964;SDS011;28604;51.204;22.552;2024-01-30T01:07:23;16.25;;;10.10;;
42964;SDS011;28604;51.204;22.552;2024-01-30T01:09:49;18.20;;;9.55;;
42964;SDS011;28604;51.204;22.552;2024-01-30T01:12:15;18.92;;;9.43;;
42964;SDS011;28604;51.204;22.552;2024-01-30T01:14:41;14.98;;;9.35;;
42964;SDS011;28604;51.204;22.552;2024-01-30T01:17:07;15.45;;;8.20;;
42964;SDS011;28604;51.204;22.552;2024-01-30T01:19:33;23.00;;;9.90;;
42964;SDS011;28604;51.204;22.552;2024-01-30T01:21:59;15.32;;;8.65;;
42964;SDS011;28604;51.204;22.552;2024-01-30T01:24:25;16.75;;;8.65;;
42964;SDS011;28604;51.204;22.552;2024-01-30T01:26:51;19.48;;;8.93;;
42964;SDS011;28604;51.204;22.552;2024-01-30T01:29:17;17.55;;;8.80;;
42964;SDS011;28604;51.204;22.552;2024-01-30T01:31:43;15.35;;;7.90;;
42964;SDS011;28604;51.204;22.552;2024-01-30T01:34:09;15.55;;;8.38;;
42964;SDS011;28604;51.204;22.552;2024-01-30T01:36:36;15.07;;;7.75;;
42964;SDS011;28604;51.204;22.552;2024-01-30T01:39:02;13.95;;;8.40;;
42964;SDS011;28604;51.204;22.552;2024-01-30T01:41:32;17.20;;;9.10;;
42964;SDS011;28604;51.204;22.552;2024-01-30T01:43:58;16.60;;;8.55;;
42964;SDS011;28604;51.204;22.552;2024-01-30T01:46:27;16.10;;;8.57;;
42964;SDS011;28604;51.204;22.552;2024-01-30T01:48:55;17.33;;;8.25;;
42964;SDS011;28604;51.204;22.552;2024-01-30T01:51:23;15.90;;;8.00;;
42964;SDS011;28604;51.204;22.552;2024-01-30T01:53:52;14.85;;;7.78;;
42964;SDS011;28604;51.204;22.552;2024-01-30T01:56:19;16.38;;;8.50;;
42964;SDS011;28604;51.204;22.552;2024-01-30T01:58:46;17.17;;;8.43;;
42964;SDS011;28604;51.204;22.552;2024-01-30T02:01:16;14.93;;;7.38;;
42964;SDS011;28604;51.204;22.552;2024-01-30T02:03:46;15.15;;;8.00;;
42964;SDS011;28604;51.204;22.552;2024-01-30T02:06:16;15.88;;;7.70;;
42964;SDS011;28604;51.204;22.552;2024-01-30T02:08:42;14.60;;;7.93;;
42964;SDS011;28604;51.204;22.552;2024-01-30T02:11:08;14.57;;;7.40;;
42964;SDS011;28604;51.204;22.552;2024-01-30T02:13:38;14.65;;;7.78;;
42964;SDS011;28604;51.204;22.552;2024-01-30T02:16:04;13.82;;;7.80;;
42964;SDS011;28604;51.204;22.552;2024-01-30T02:18:30;18.52;;;8.13;;
42964;SDS011;28604;51.204;22.552;2024-01-30T02:20:56;16.23;;;7.97;;
42964;SDS011;28604;51.204;22.552;2024-01-30T02:23:26;12.35;;;7.20;;
42964;SDS011;28604;51.204;22.552;2024-01-30T02:25:53;15.30;;;8.60;;
42964;SDS011;28604;51.204;22.552;2024-01-30T02:28:19;16.65;;;8.10;;
42964;SDS011;28604;51.204;22.552;2024-01-30T02:30:45;15.02;;;8.32;;
42964;SDS011;28604;51.204;22.552;2024-01-30T02:33:12;16.88;;;8.40;;
42964;SDS011;28604;51.204;22.552;2024-01-30T02:35:38;12.50;;;7.13;;
42964;SDS011;28604;51.204;22.552;2024-01-30T02:38:04;14.00;;;7.72;;
42964;SDS011;28604;51.204;22.552;2024-01-30T02:40:31;14.25;;;7.43;;
42964;SDS011;28604;51.204;22.552;2024-01-30T02:43:01;17.33;;;8.10;;
42964;SDS011;28604;51.204;22.552;2024-01-30T02:45:27;15.25;;;8.43;;
42964;SDS011;28604;51.204;22.552;2024-01-30T02:47:53;14.02;;;7.47;;
42964;SDS011;28604;51.204;22.552;2024-01-30T02:50:19;20.80;;;8.05;;
42964;SDS011;28604;51.204;22.552;2024-01-30T02:52:45;20.08;;;9.45;;
42964;SDS011;28604;51.204;22.552;2024-01-30T02:55:11;13.77;;;8.05;;
42964;SDS011;28604;51.204;22.552;2024-01-30T02:57:38;13.57;;;7.25;;
42964;SDS011;28604;51.204;22.552;2024-01-30T03:00:05;14.55;;;7.80;;
42964;SDS011;28604;51.204;22.552;2024-01-30T03:02:32;14.95;;;7.88;;
42964;SDS011;28604;51.204;22.552;2024-01-30T03:04:59;16.02;;;7.82;;
42964;SDS011;28604;51.204;22.552;2024-01-30T03:07:25;15.10;;;7.70;;
42964;SDS011;28604;51.204;22.552;2024-01-30T03:09:52;16.27;;;7.28;;
42964;SDS011;28604;51.204;22.552;2024-01-30T03:12:17;15.75;;;7.45;;
42964;SDS011;28604;51.204;22.552;2024-01-30T03:14:43;16.00;;;7.93;;
42964;SDS011;28604;51.204;22.552;2024-01-30T03:17:09;16.10;;;7.47;;
42964;SDS011;28604;51.204;22.552;2024-01-30T03:19:35;14.27;;;8.07;;
42964;SDS011;28604;51.204;22.552;2024-01-30T03:22:01;14.90;;;7.78;;
42964;SDS011;28604;51.204;22.552;2024-01-30T03:24:27;12.65;;;6.95;;
42964;SDS011;28604;51.204;22.552;2024-01-30T03:26:53;12.48;;;6.78;;
42964;SDS011;28604;51.204;22.552;2024-01-30T03:29:19;12.75;;;7.30;;
42964;SDS011;28604;51.204;22.552;2024-01-30T03:31:45;16.02;;;8.25;;
42964;SDS011;28604;51.204;22.552;2024-01-30T03:34:11;13.98;;;7.28;;
42964;SDS011;28604;51.204;22.552;2024-01-30T03:36:37;13.50;;;6.78;;
42964;SDS011;28604;51.204;22.552;2024-01-30T03:39:03;12.73;;;6.75;;
42964;SDS011;28604;51.204;22.552;2024-01-30T03:41:28;11.82;;;6.65;;
42964;SDS011;28604;51.204;22.552;2024-01-30T03:43:54;13.32;;;6.88;;
42964;SDS011;28604;51.204;22.552;2024-01-30T03:46:20;15.98;;;7.07;;
42964;SDS011;28604;51.204;22.552;2024-01-30T03:48:46;11.60;;;6.07;;
42964;SDS011;28604;51.204;22.552;2024-01-30T03:51:12;14.88;;;7.13;;
42964;SDS011;28604;51.204;22.552;2024-01-30T03:53:40;12.95;;;6.57;;
42964;SDS011;28604;51.204;22.552;2024-01-30T03:56:10;14.52;;;6.80;;
42964;SDS011;28604;51.204;22.552;2024-01-30T03:58:37;11.80;;;6.63;;
42964;SDS011;28604;51.204;22.552;2024-01-30T04:01:03;15.10;;;7.18;;
42964;SDS011;28604;51.204;22.552;2024-01-30T04:03:29;12.75;;;7.15;;
42964;SDS011;28604;51.204;22.552;2024-01-30T04:05:55;11.38;;;6.05;;
42964;SDS011;28604;51.204;22.552;2024-01-30T04:08:21;12.07;;;5.93;;
42964;SDS011;28604;51.204;22.552;2024-01-30T04:10:46;11.18;;;6.20;;
42964;SDS011;28604;51.204;22.552;2024-01-30T04:13:13;11.35;;;6.30;;
42964;SDS011;28604;51.204;22.552;2024-01-30T04:15:39;11.18;;;6.00;;
42964;SDS011;28604;51.204;22.552;2024-01-30T04:18:05;14.00;;;6.78;;
42964;SDS011;28604;51.204;22.552;2024-01-30T04:20:31;13.50;;;7.05;;
42964;SDS011;28604;51.204;22.552;2024-01-30T04:22:57;14.98;;;6.93;;
42964;SDS011;28604;51.204;22.552;2024-01-30T04:25:22;12.52;;;6.53;;
42964;SDS011;28604;51.204;22.552;2024-01-30T04:27:48;14.05;;;6.90;;
42964;SDS011;28604;51.204;22.552;2024-01-30T04:30:14;11.90;;;5.82;;
42964;SDS011;28604;51.204;22.552;2024-01-30T04:32:41;13.35;;;6.50;;
42964;SDS011;28604;51.204;22.552;2024-01-30T04:35:08;12.27;;;6.13;;
42964;SDS011;28604;51.204;22.552;2024-01-30T04:37:34;14.85;;;6.45;;
42964;SDS011;28604;51.204;22.552;2024-01-30T04:40:00;12.15;;;5.93;;
42964;SDS011;28604;51.204;22.552;2024-01-30T04:42:26;12.25;;;6.25;;
42964;SDS011;28604;51.204;22.552;2024-01-30T04:44:52;11.27;;;6.28;;
42964;SDS011;28604;51.204;22.552;2024-01-30T04:47:18;11.00;;;6.25;;
42964;SDS011;28604;51.204;22.552;2024-01-30T04:49:43;12.30;;;6.38;;
42964;SDS011;28604;51.204;22.552;2024-01-30T04:52:09;12.40;;;7.00;;
42964;SDS011;28604;51.204;22.552;2024-01-30T04:54:35;13.48;;;6.20;;
42964;SDS011;28604;51.204;22.552;2024-01-30T04:57:02;11.93;;;6.30;;
42964;SDS011;28604;51.204;22.552;2024-01-30T04:59:28;14.20;;;6.70;;
42964;SDS011;28604;51.204;22.552;2024-01-30T05:01:54;11.60;;;6.25;;
42964;SDS011;28604;51.204;22.552;2024-01-30T05:04:20;14.63;;;6.50;;
42964;SDS011;28604;51.204;22.552;2024-01-30T05:06:47;13.05;;;6.40;;
42964;SDS011;28604;51.204;22.552;2024-01-30T05:09:13;12.93;;;6.47;;
42964;SDS011;28604;51.204;22.552;2024-01-30T05:11:39;11.63;;;6.65;;
42964;SDS011;28604;51.204;22.552;2024-01-30T05:14:05;11.30;;;6.25;;
42964;SDS011;28604;51.204;22.552;2024-01-30T05:16:32;12.38;;;6.20;;
42964;SDS011;28604;51.204;22.552;2024-01-30T05:18:58;10.00;;;5.55;;
42964;SDS011;28604;51.204;22.552;2024-01-30T05:21:24;13.55;;;6.28;;
42964;SDS011;28604;51.204;22.552;2024-01-30T05:23:50;14.48;;;6.80;;
42964;SDS011;28604;51.204;22.552;2024-01-30T05:26:17;9.90;;;5.63;;
42964;SDS011;28604;51.204;22.552;2024-01-30T05:28:43;12.05;;;5.93;;
42964;SDS011;28604;51.204;22.552;2024-01-30T05:31:10;13.30;;;6.53;;
42964;SDS011;28604;51.204;22.552;2024-01-30T05:33:36;12.07;;;6.78;;
42964;SDS011;28604;51.204;22.552;2024-01-30T05:36:02;14.07;;;6.22;;
42964;SDS011;28604;51.204;22.552;2024-01-30T05:38:28;13.80;;;7.22;;
42964;SDS011;28604;51.204;22.552;2024-01-30T05:40:55;10.48;;;6.20;;
42964;SDS011;28604;51.204;22.552;2024-01-30T05:43:23;12.90;;;7.40;;
42964;SDS011;28604;51.204;22.552;2024-01-30T05:45:49;14.85;;;6.85;;
42964;SDS011;28604;51.204;22.552;2024-01-30T05:48:16;12.05;;;6.57;;
42964;SDS011;28604;51.204;22.552;2024-01-30T05:50:42;13.77;;;6.70;;
42964;SDS011;28604;51.204;22.552;2024-01-30T05:53:08;10.23;;;5.20;;
42964;SDS011;28604;51.204;22.552;2024-01-30T05:55:34;10.88;;;6.05;;
42964;SDS011;28604;51.204;22.552;2024-01-30T05:58:00;8.52;;;5.20;;
42964;SDS011;28604;51.204;22.552;2024-01-30T06:00:26;11.98;;;5.68;;
42964;SDS011;28604;51.204;22.552;2024-01-30T06:02:52;11.68;;;5.57;;
42964;SDS011;28604;51.204;22.552;2024-01-30T06:05:18;12.95;;;6.45;;
42964;SDS011;28604;51.204;22.552;2024-01-30T06:07:44;11.80;;;6.10;;
42964;SDS011;28604;51.204;22.552;2024-01-30T06:10:10;13.48;;;5.57;;
42964;SDS011;28604;51.204;22.552;2024-01-30T06:12:36;10.85;;;5.95;;
42964;SDS011;28604;51.204;22.552;2024-01-30T06:15:03;13.02;;;6.88;;
42964;SDS011;28604;51.204;22.552;2024-01-30T06:17:29;11.82;;;7.03;;
42964;SDS011;28604;51.204;22.552;2024-01-30T06:19:55;10.05;;;5.47;;
42964;SDS011;28604;51.204;22.552;2024-01-30T06:22:21;11.30;;;5.50;;
42964;SDS011;28604;51.204;22.552;2024-01-30T06:24:47;10.75;;;6.13;;
42964;SDS011;28604;51.204;22.552;2024-01-30T06:27:14;7.93;;;5.25;;
42964;SDS011;28604;51.204;22.552;2024-01-30T06:29:40;10.63;;;5.60;;
42964;SDS011;28604;51.204;22.552;2024-01-30T06:32:08;13.70;;;6.80;;
42964;SDS011;28604;51.204;22.552;2024-01-30T06:34:34;10.93;;;5.45;;
42964;SDS011;28604;51.204;22.552;2024-01-30T06:37:00;9.77;;;6.15;;
42964;SDS011;28604;51.204;22.552;2024-01-30T06:39:26;10.85;;;5.75;;
42964;SDS011;28604;51.204;22.552;2024-01-30T06:41:52;12.25;;;6.30;;
42964;SDS011;28604;51.204;22.552;2024-01-30T06:44:18;11.23;;;5.93;;
42964;SDS011;28604;51.204;22.552;2024-01-30T06:46:44;13.60;;;6.07;;
42964;SDS011;28604;51.204;22.552;2024-01-30T06:49:10;12.80;;;6.43;;
42964;SDS011;28604;51.204;22.552;2024-01-30T06:51:36;11.13;;;6.40;;
42964;SDS011;28604;51.204;22.552;2024-01-30T06:54:02;15.30;;;6.88;;
42964;SDS011;28604;51.204;22.552;2024-01-30T06:56:28;11.75;;;6.55;;
42964;SDS011;28604;51.204;22.552;2024-01-30T06:58:54;11.15;;;6.55;;
42964;SDS011;28604;51.204;22.552;2024-01-30T07:01:27;11.57;;;7.13;;
42964;SDS011;28604;51.204;22.552;2024-01-30T07:03:54;10.35;;;6.78;;
42964;SDS011;28604;51.204;22.552;2024-01-30T07:06:20;12.95;;;6.88;;
42964;SDS011;28604;51.204;22.552;2024-01-30T07:08:48;16.48;;;7.07;;
42964;SDS011;28604;51.204;22.552;2024-01-30T07:11:18;11.32;;;7.20;;
42964;SDS011;28604;51.204;22.552;2024-01-30T07:13:45;15.25;;;6.97;;
42964;SDS011;28604;51.204;22.552;2024-01-30T07:16:12;11.18;;;6.65;;
42964;SDS011;28604;51.204;22.552;2024-01-30T07:18:38;11.90;;;6.72;;
42964;SDS011;28604;51.204;22.552;2024-01-30T07:21:04;11.15;;;6.82;;
42964;SDS011;28604;51.204;22.552;2024-01-30T07:23:30;13.82;;;7.43;;
42964;SDS011;28604;51.204;22.552;2024-01-30T07:25:56;13.63;;;7.00;;
42964;SDS011;28604;51.204;22.552;2024-01-30T07:28:22;12.77;;;7.25;;
42964;SDS011;28604;51.204;22.552;2024-01-30T07:30:51;11.43;;;7.22;;
42964;SDS011;28604;51.204;22.552;2024-01-30T07:33:17;11.00;;;7.20;;
42964;SDS011;28604;51.204;22.552;2024-01-30T07:35:44;9.65;;;6.07;;
42964;SDS011;28604;51.204;22.552;2024-01-30T07:38:11;10.02;;;6.35;;
42964;SDS011;28604;51.204;22.552;2024-01-30T07:40:37;13.65;;;7.75;;
42964;SDS011;28604;51.204;22.552;2024-01-30T07:43:03;10.68;;;6.90;;
42964;SDS011;28604;51.204;22.552;2024-01-30T07:45:29;12.05;;;7.68;;
42964;SDS011;28604;51.204;22.552;2024-01-30T07:47:58;11.25;;;7.05;;
42964;SDS011;28604;51.204;22.552;2024-01-30T07:50:27;12.00;;;7.30;;
42964;SDS011;28604;51.204;22.552;2024-01-30T07:52:55;12.30;;;7.70;;
42964;SDS011;28604;51.204;22.552;2024-01-30T07:55:21;11.98;;;6.95;;
42964;SDS011;28604;51.204;22.552;2024-01-30T07:57:54;12.23;;;7.30;;
42964;SDS011;28604;51.204;22.552;2024-01-30T08:00:21;12.75;;;7.68;;
42964;SDS011;28604;51.204;22.552;2024-01-30T08:02:47;11.27;;;6.78;;
42964;SDS011;28604;51.204;22.552;2024-01-30T08:05:13;10.45;;;7.22;;
42964;SDS011;28604;51.204;22.552;2024-01-30T08:07:41;13.77;;;7.97;;
42964;SDS011;28604;51.204;22.552;2024-01-30T08:10:11;10.90;;;6.68;;
42964;SDS011;28604;51.204;22.552;2024-01-30T08:12:38;10.73;;;7.25;;
42964;SDS011;28604;51.204;22.552;2024-01-30T08:15:04;16.20;;;8.32;;
42964;SDS011;28604;51.204;22.552;2024-01-30T08:17:31;11.68;;;7.43;;
42964;SDS011;28604;51.204;22.552;2024-01-30T08:19:57;11.55;;;7.78;;
42964;SDS011;28604;51.204;22.552;2024-01-30T08:22:23;11.63;;;7.57;;
42964;SDS011;28604;51.204;22.552;2024-01-30T08:24:49;10.75;;;7.07;;
42964;SDS011;28604;51.204;22.552;2024-01-30T08:27:15;11.82;;;7.70;;
42964;SDS011;28604;51.204;22.552;2024-01-30T08:29:40;11.20;;;6.88;;
42964;SDS011;28604;51.204;22.552;2024-01-30T08:32:07;12.88;;;7.32;;
42964;SDS011;28604;51.204;22.552;2024-01-30T08:34:33;10.52;;;7.07;;
42964;SDS011;28604;51.204;22.552;2024-01-30T08:36:59;9.55;;;6.85;;
42964;SDS011;28604;51.204;22.552;2024-01-30T08:39:25;12.70;;;7.68;;
42964;SDS011;28604;51.204;22.552;2024-01-30T08:41:51;11.32;;;7.93;;
42964;SDS011;28604;51.204;22.552;2024-01-30T08:44:17;14.25;;;7.78;;
42964;SDS011;28604;51.204;22.552;2024-01-30T08:46:46;13.52;;;8.05;;
42964;SDS011;28604;51.204;22.552;2024-01-30T08:49:13;10.90;;;7.43;;
42964;SDS011;28604;51.204;22.552;2024-01-30T08:51:39;10.60;;;7.43;;
42964;SDS011;28604;51.204;22.552;2024-01-30T08:54:05;10.93;;;7.72;;
42964;SDS011;28604;51.204;22.552;2024-01-30T08:56:31;11.75;;;6.57;;
42964;SDS011;28604;51.204;22.552;2024-01-30T08:58:57;10.93;;;8.13;;
42964;SDS011;28604;51.204;22.552;2024-01-30T09:01:23;9.45;;;7.32;;
42964;SDS011;28604;51.204;22.552;2024-01-30T09:03:50;10.25;;;7.10;;
42964;SDS011;28604;51.204;22.552;2024-01-30T09:06:16;10.23;;;7.25;;
42964;SDS011;28604;51.204;22.552;2024-01-30T09:08:43;11.00;;;8.05;;
42964;SDS011;28604;51.204;22.552;2024-01-30T09:13:37;10.70;;;7.35;;
42964;SDS011;28604;51.204;22.552;2024-01-30T09:16:03;9.07;;;7.65;;
42964;SDS011;28604;51.204;22.552;2024-01-30T09:18:30;10.25;;;6.88;;
42964;SDS011;28604;51.204;22.552;2024-01-30T09:20:56;11.75;;;7.38;;
42964;SDS011;28604;51.204;22.552;2024-01-30T09:23:22;9.52;;;7.15;;
42964;SDS011;28604;51.204;22.552;2024-01-30T09:25:48;11.77;;;7.53;;
42964;SDS011;28604;51.204;22.552;2024-01-30T09:28:14;14.77;;;8.15;;
42964;SDS011;28604;51.204;22.552;2024-01-30T09:30:40;11.15;;;7.18;;
42964;SDS011;28604;51.204;22.552;2024-01-30T09:33:06;8.85;;;7.15;;
42964;SDS011;28604;51.204;22.552;2024-01-30T09:35:33;9.00;;;6.82;;
42964;SDS011;28604;51.204;22.552;2024-01-30T09:37:59;10.65;;;7.35;;
42964;SDS011;28604;51.204;22.552;2024-01-30T09:40:25;9.63;;;7.05;;
42964;SDS011;28604;51.204;22.552;2024-01-30T09:42:51;9.93;;;6.55;;
42964;SDS011;28604;51.204;22.552;2024-01-30T09:45:17;10.25;;;7.45;;
42964;SDS011;28604;51.204;22.552;2024-01-30T09:47:44;9.10;;;7.20;;
42964;SDS011;28604;51.204;22.552;2024-01-30T09:52:55;14.07;;;7.78;;
42964;SDS011;28604;51.204;22.552;2024-01-30T09:55:24;10.85;;;7.78;;
42964;SDS011;28604;51.204;22.552;2024-01-30T09:57:50;10.80;;;7.50;;
42964;SDS011;28604;51.204;22.552;2024-01-30T10:00:16;11.13;;;7.85;;
42964;SDS011;28604;51.204;22.552;2024-01-30T10:02:42;9.07;;;7.03;;
42964;SDS011;28604;51.204;22.552;2024-01-30T10:05:09;11.02;;;7.47;;
42964;SDS011;28604;51.204;22.552;2024-01-30T10:07:36;12.80;;;6.65;;
42964;SDS011;28604;51.204;22.552;2024-01-30T10:10:02;9.90;;;6.93;;
42964;SDS011;28604;51.204;22.552;2024-01-30T10:12:29;7.75;;;6.43;;
42964;SDS011;28604;51.204;22.552;2024-01-30T10:14:56;9.70;;;6.72;;
42964;SDS011;28604;51.204;22.552;2024-01-30T10:17:24;7.88;;;5.95;;
42964;SDS011;28604;51.204;22.552;2024-01-30T10:19:51;10.23;;;7.15;;
42964;SDS011;28604;51.204;22.552;2024-01-30T10:22:17;9.85;;;7.40;;
42964;SDS011;28604;51.204;22.552;2024-01-30T10:24:43;10.70;;;7.20;;
42964;SDS011;28604;51.204;22.552;2024-01-30T10:27:10;12.52;;;7.68;;
42964;SDS011;28604;51.204;22.552;2024-01-30T10:29:37;8.77;;;7.28;;
42964;SDS011;28604;51.204;22.552;2024-01-30T10:32:04;11.55;;;7.10;;
42964;SDS011;28604;51.204;22.552;2024-01-30T10:34:31;10.18;;;6.72;;
42964;SDS011;28604;51.204;22.552;2024-01-30T10:39:44;12.90;;;7.68;;
42964;SDS011;28604;51.204;22.552;2024-01-30T10:42:19;10.18;;;7.50;;
42964;SDS011;28604;51.204;22.552;2024-01-30T10:44:56;10.88;;;6.63;;
42964;SDS011;28604;51.204;22.552;2024-01-30T10:47:27;9.90;;;7.80;;
42964;SDS011;28604;51.204;22.552;2024-01-30T10:52:36;11.13;;;7.90;;
42964;SDS011;28604;51.204;22.552;2024-01-30T10:55:02;10.57;;;7.40;;
42964;SDS011;28604;51.204;22.552;2024-01-30T10:57:31;11.75;;;7.70;;
42964;SDS011;28604;51.204;22.552;2024-01-30T11:00:00;10.13;;;6.93;;
42964;SDS011;28604;51.204;22.552;2024-01-30T11:02:30;9.93;;;7.25;;
42964;SDS011;28604;51.204;22.552;2024-01-30T11:04:58;11.23;;;7.05;;
42964;SDS011;28604;51.204;22.552;2024-01-30T11:07:25;10.40;;;7.25;;
42964;SDS011;28604;51.204;22.552;2024-01-30T11:09:53;9.70;;;6.50;;
42964;SDS011;28604;51.204;22.552;2024-01-30T11:12:23;13.95;;;7.95;;
42964;SDS011;28604;51.204;22.552;2024-01-30T11:15:01;12.63;;;7.72;;
42964;SDS011;28604;51.204;22.552;2024-01-30T11:17:50;9.98;;;7.68;;
42964;SDS011;28604;51.204;22.552;2024-01-30T11:22:50;13.50;;;8.43;;
42964;SDS011;28604;51.204;22.552;2024-01-30T11:25:18;10.38;;;7.45;;
42964;SDS011;28604;51.204;22.552;2024-01-30T11:27:46;10.63;;;7.45;;
42964;SDS011;28604;51.204;22.552;2024-01-30T11:30:31;10.45;;;7.38;;
42964;SDS011;28604;51.204;22.552;2024-01-30T11:32:58;12.85;;;6.80;;
42964;SDS011;28604;51.204;22.552;2024-01-30T11:35:33;10.90;;;7.50;;
42964;SDS011;28604;51.204;22.552;2024-01-30T11:38:00;11.15;;;7.43;;
42964;SDS011;28604;51.204;22.552;2024-01-30T11:40:28;15.70;;;7.43;;
42964;SDS011;28604;51.204;22.552;2024-01-30T11:42:55;10.93;;;7.10;;
42964;SDS011;28604;51.204;22.552;2024-01-30T11:45:23;8.82;;;6.88;;
42964;SDS011;28604;51.204;22.552;2024-01-30T11:47:49;8.35;;;6.90;;
42964;SDS011;28604;51.204;22.552;2024-01-30T11:50:15;11.93;;;7.75;;
42964;SDS011;28604;51.204;22.552;2024-01-30T11:52:41;10.32;;;6.50;;
42964;SDS011;28604;51.204;22.552;2024-01-30T11:55:08;9.82;;;6.90;;
42964;SDS011;28604;51.204;22.552;2024-01-30T11:57:36;11.40;;;7.63;;
42964;SDS011;28604;51.204;22.552;2024-01-30T12:00:05;12.52;;;6.82;;
42964;SDS011;28604;51.204;22.552;2024-01-30T12:02:36;10.98;;;6.55;;
42964;SDS011;28604;51.204;22.552;2024-01-30T12:05:05;9.95;;;7.65;;
42964;SDS011;28604;51.204;22.552;2024-01-30T12:07:35;11.73;;;6.65;;
42964;SDS011;28604;51.204;22.552;2024-01-30T12:10:02;10.68;;;6.30;;
42964;SDS011;28604;51.204;22.552;2024-01-30T12:12:28;11.63;;;7.70;;
42964;SDS011;28604;51.204;22.552;2024-01-30T12:14:55;11.45;;;6.93;;
42964;SDS011;28604;51.204;22.552;2024-01-30T12:17:28;12.60;;;7.55;;
42964;SDS011;28604;51.204;22.552;2024-01-30T12:20:14;10.65;;;7.50;;
42964;SDS011;28604;51.204;22.552;2024-01-30T12:22:44;17.02;;;7.38;;
42964;SDS011;28604;51.204;22.552;2024-01-30T12:25:12;13.10;;;7.50;;
42964;SDS011;28604;51.204;22.552;2024-01-30T12:27:43;13.75;;;7.93;;
42964;SDS011;28604;51.204;22.552;2024-01-30T12:30:10;11.50;;;8.13;;
42964;SDS011;28604;51.204;22.552;2024-01-30T12:32:39;12.93;;;7.82;;
42964;SDS011;28604;51.204;22.552;2024-01-30T12:35:10;14.65;;;8.23;;
42964;SDS011;28604;51.204;22.552;2024-01-30T12:37:42;12.82;;;8.20;;
42964;SDS011;28604;51.204;22.552;2024-01-30T12:40:09;12.77;;;7.70;;
42964;SDS011;28604;51.204;22.552;2024-01-30T12:42:36;10.98;;;7.25;;
42964;SDS011;28604;51.204;22.552;2024-01-30T12:45:03;10.63;;;7.57;;
42964;SDS011;28604;51.204;22.552;2024-01-30T12:47:32;11.35;;;7.95;;
42964;SDS011;28604;51.204;22.552;2024-01-30T12:49:58;14.95;;;8.18;;
42964;SDS011;28604;51.204;22.552;2024-01-30T12:52:24;10.95;;;8.20;;
42964;SDS011;28604;51.204;22.552;2024-01-30T12:54:51;15.80;;;8.15;;
42964;SDS011;28604;51.204;22.552;2024-01-30T12:57:17;10.55;;;7.40;;
42964;SDS011;28604;51.204;22.552;2024-01-30T12:59:44;12.48;;;7.78;;
42964;SDS011;28604;51.204;22.552;2024-01-30T13:02:14;10.18;;;6.93;;
42964;SDS011;28604;51.204;22.552;2024-01-30T13:04:40;11.93;;;8.15;;
42964;SDS011;28604;51.204;22.552;2024-01-30T13:07:07;15.07;;;7.90;;
42964;SDS011;28604;51.204;22.552;2024-01-30T13:09:33;11.88;;;7.60;;
42964;SDS011;28604;51.204;22.552;2024-01-30T13:11:59;10.77;;;7.28;;
42964;SDS011;28604;51.204;22.552;2024-01-30T13:14:25;12.27;;;7.25;;
42964;SDS011;28604;51.204;22.552;2024-01-30T13:16:51;12.82;;;7.78;;
42964;SDS011;28604;51.204;22.552;2024-01-30T13:19:20;12.50;;;8.23;;
42964;SDS011;28604;51.204;22.552;2024-01-30T13:21:46;13.32;;;7.88;;
42964;SDS011;28604;51.204;22.552;2024-01-30T13:24:13;10.43;;;7.68;;
42964;SDS011;28604;51.204;22.552;2024-01-30T13:26:39;13.98;;;7.90;;
42964;SDS011;28604;51.204;22.552;2024-01-30T13:29:05;12.80;;;7.93;;
42964;SDS011;28604;51.204;22.552;2024-01-30T13:31:31;8.30;;;7.05;;
42964;SDS011;28604;51.204;22.552;2024-01-30T13:33:57;12.88;;;7.20;;
42964;SDS011;28604;51.204;22.552;2024-01-30T13:36:23;10.18;;;7.63;;
42964;SDS011;28604;51.204;22.552;2024-01-30T13:38:49;8.85;;;7.18;;
42964;SDS011;28604;51.204;22.552;2024-01-30T13:41:15;8.93;;;6.70;;
42964;SDS011;28604;51.204;22.552;2024-01-30T13:43:43;13.85;;;7.53;;
42964;SDS011;28604;51.204;22.552;2024-01-30T13:46:10;12.02;;;7.28;;
42964;SDS011;28604;51.204;22.552;2024-01-30T13:48:36;11.75;;;6.93;;
42964;SDS011;28604;51.204;22.552;2024-01-30T13:51:02;11.93;;;7.68;;
42964;SDS011;28604;51.204;22.552;2024-01-30T13:53:28;12.68;;;6.78;;
42964;SDS011;28604;51.204;22.552;2024-01-30T13:55:54;10.38;;;7.15;;
42964;SDS011;28604;51.204;22.552;2024-01-30T13:58:20;12.80;;;7.43;;
42964;SDS011;28604;51.204;22.552;2024-01-30T14:00:46;11.15;;;7.15;;
42964;SDS011;28604;51.204;22.552;2024-01-30T14:03:12;9.68;;;7.32;;
42964;SDS011;28604;51.204;22.552;2024-01-30T14:05:38;11.80;;;6.25;;
42964;SDS011;28604;51.204;22.552;2024-01-30T14:08:05;10.40;;;7.30;;
42964;SDS011;28604;51.204;22.552;2024-01-30T14:10:33;10.00;;;7.25;;
42964;SDS011;28604;51.204;22.552;2024-01-30T14:12:59;12.20;;;6.65;;
42964;SDS011;28604;51.204;22.552;2024-01-30T14:15:25;10.23;;;6.85;;
42964;SDS011;28604;51.204;22.552;2024-01-30T14:17:51;9.88;;;6.30;;
42964;SDS011;28604;51.204;22.552;2024-01-30T14:20:17;10.27;;;6.97;;
42964;SDS011;28604;51.204;22.552;2024-01-30T14:22:43;13.27;;;6.78;;
42964;SDS011;28604;51.204;22.552;2024-01-30T14:25:09;11.52;;;7.30;;
42964;SDS011;28604;51.204;22.552;2024-01-30T14:27:35;10.98;;;6.75;;
42964;SDS011;28604;51.204;22.552;2024-01-30T14:30:02;12.23;;;7.15;;
42964;SDS011;28604;51.204;22.552;2024-01-30T14:32:31;12.50;;;8.02;;